createdAt,value
2022-12-12T00:00:41.043Z,14.15
2022-12-12T00:03:09.988Z,14.07
2022-12-12T00:05:36.544Z,14.80
2022-12-12T00:08:03.002Z,14.73
2022-12-12T00:10:29.575Z,14.38
2022-12-12T00:12:56.076Z,14.48
2022-12-12T00:15:23.334Z,14.30
2022-12-12T00:17:49.995Z,13.93
2022-12-12T00:20:16.621Z,14.35
2022-12-12T00:22:43.265Z,13.48
2022-12-12T00:25:10.169Z,13.88
2022-12-12T00:27:36.872Z,13.80
2022-12-12T00:30:04.559Z,13.80
2022-12-12T00:32:31.546Z,13.38
2022-12-12T00:34:57.944Z,13.88
2022-12-12T00:37:24.371Z,13.55
2022-12-12T00:39:51.034Z,14.25
2022-12-12T00:42:17.715Z,14.02
2022-12-12T00:44:44.249Z,15.18
2022-12-12T00:47:10.869Z,13.77
2022-12-12T00:49:37.452Z,13.77
2022-12-12T00:52:04.848Z,13.40
2022-12-12T00:54:31.520Z,12.75
2022-12-12T00:56:59.004Z,13.68
2022-12-12T00:59:25.824Z,13.93
2022-12-12T01:01:52.379Z,12.52
2022-12-12T01:04:18.913Z,13.32
2022-12-12T01:06:45.428Z,13.13
2022-12-12T01:09:12.131Z,13.63
2022-12-12T01:11:39.060Z,13.40
2022-12-12T01:14:06.924Z,13.68
2022-12-12T01:16:33.542Z,14.00
2022-12-12T01:19:00.074Z,14.93
2022-12-12T01:21:26.532Z,13.75
2022-12-12T01:23:53.028Z,13.32
2022-12-12T01:26:23.062Z,14.10
2022-12-12T01:28:50.236Z,14.13
2022-12-12T01:31:17.469Z,13.45
2022-12-12T01:33:47.457Z,14.30
2022-12-12T01:36:16.747Z,13.30
2022-12-12T01:38:45.081Z,13.07
2022-12-12T01:41:12.535Z,14.32
2022-12-12T01:43:39.405Z,13.70
2022-12-12T01:46:08.541Z,13.35
2022-12-12T01:48:40.712Z,12.63
2022-12-12T01:51:16.393Z,13.85
2022-12-12T01:53:44.379Z,13.07
2022-12-12T01:56:15.321Z,13.77
2022-12-12T01:58:44.714Z,14.20
2022-12-12T02:01:11.535Z,13.02
2022-12-12T02:03:39.416Z,13.60
2022-12-12T02:06:10.488Z,13.52
2022-12-12T02:08:38.552Z,13.85
2022-12-12T02:11:06.521Z,13.50
2022-12-12T02:13:34.984Z,13.73
2022-12-12T02:16:35.229Z,13.50
2022-12-12T02:19:31.052Z,13.43
2022-12-12T02:22:03.424Z,13.60
2022-12-12T02:24:48.374Z,11.60
2022-12-12T02:27:35.501Z,13.25
2022-12-12T02:30:14.023Z,13.98
2022-12-12T02:33:21.688Z,13.25
2022-12-12T02:36:01.673Z,13.35
2022-12-12T02:38:30.757Z,13.23
2022-12-12T02:41:22.456Z,12.45
2022-12-12T02:44:26.385Z,12.10
2022-12-12T02:46:59.329Z,12.00
2022-12-12T02:49:49.449Z,12.27
2022-12-12T02:52:16.834Z,12.82
2022-12-12T02:54:43.971Z,12.82
2022-12-12T02:57:19.202Z,11.25
2022-12-12T03:00:08.307Z,13.00
2022-12-12T03:02:50.068Z,12.73
2022-12-12T03:06:00.751Z,13.40
2022-12-12T03:08:49.115Z,12.27
2022-12-12T03:11:33.651Z,12.57
2022-12-12T03:14:10.779Z,11.93
2022-12-12T03:16:41.074Z,12.60
2022-12-12T03:19:14.657Z,12.35
2022-12-12T03:21:59.282Z,13.40
2022-12-12T03:24:49.583Z,12.60
2022-12-12T03:27:18.807Z,12.05
2022-12-12T03:30:07.469Z,12.52
2022-12-12T03:32:50.403Z,12.10
2022-12-12T03:35:24.798Z,12.30
2022-12-12T03:37:56.604Z,13.02
2022-12-12T03:40:30.134Z,12.30
2022-12-12T03:43:01.018Z,12.98
2022-12-12T03:45:35.025Z,12.50
2022-12-12T03:48:15.574Z,11.52
2022-12-12T03:50:53.663Z,12.57
2022-12-12T03:53:30.259Z,12.80
2022-12-12T03:56:22.582Z,12.30
2022-12-12T03:58:52.067Z,13.65
2022-12-12T04:01:23.380Z,12.45
2022-12-12T04:04:05.702Z,12.02
2022-12-12T04:06:39.448Z,12.60
2022-12-12T04:09:31.486Z,12.48
2022-12-12T04:12:25.758Z,11.73
2022-12-12T04:14:54.865Z,11.65
2022-12-12T04:17:33.967Z,12.05
2022-12-12T04:20:29.040Z,12.82
2022-12-12T04:23:16.109Z,12.30
2022-12-12T04:26:19.806Z,12.20
2022-12-12T04:28:58.549Z,12.05
2022-12-12T04:31:28.260Z,12.68
2022-12-12T04:34:02.241Z,12.65
2022-12-12T04:36:31.533Z,12.57
2022-12-12T04:39:00.058Z,11.75
2022-12-12T04:41:31.150Z,11.50
2022-12-12T04:43:59.964Z,12.30
2022-12-12T04:46:28.706Z,12.70
2022-12-12T04:51:31.256Z,12.35
2022-12-12T04:54:05.174Z,12.10
2022-12-12T04:56:35.899Z,11.43
2022-12-12T04:59:03.387Z,11.55
2022-12-12T05:01:41.128Z,11.68
2022-12-12T05:04:41.560Z,13.32
2022-12-12T05:07:12.775Z,11.82
2022-12-12T05:09:40.018Z,12.55
2022-12-12T05:12:07.016Z,11.93
2022-12-12T05:14:33.732Z,11.40
2022-12-12T05:17:06.667Z,11.60
2022-12-12T05:19:33.291Z,12.57
2022-12-12T05:21:59.935Z,12.15
2022-12-12T05:24:31.258Z,13.35
2022-12-12T05:26:59.862Z,11.80
2022-12-12T05:29:26.420Z,12.50
2022-12-12T05:31:53.108Z,11.38
2022-12-12T05:34:20.043Z,12.45
2022-12-12T05:36:47.767Z,12.10
2022-12-12T05:39:14.451Z,11.80
2022-12-12T05:41:40.905Z,11.80
2022-12-12T05:44:07.527Z,12.05
2022-12-12T05:46:34.124Z,11.35
2022-12-12T05:49:00.625Z,13.07
2022-12-12T05:51:27.514Z,12.68
2022-12-12T05:53:54.091Z,11.90
2022-12-12T05:56:20.555Z,12.38
2022-12-12T05:58:47.053Z,11.93
2022-12-12T06:01:14.715Z,12.90
2022-12-12T06:03:42.213Z,12.43
2022-12-12T06:06:09.011Z,12.05
2022-12-12T06:08:35.698Z,12.00
2022-12-12T06:11:06.130Z,11.55
2022-12-12T06:13:32.603Z,11.50
2022-12-12T06:15:59.416Z,12.68
2022-12-12T06:18:26.091Z,11.85
2022-12-12T06:21:01.896Z,12.77
2022-12-12T06:23:28.493Z,12.07
2022-12-12T06:25:54.892Z,13.80
2022-12-12T06:28:21.371Z,12.68
2022-12-12T06:30:48.123Z,12.32
2022-12-12T06:33:14.613Z,12.63
2022-12-12T06:35:41.296Z,11.73
2022-12-12T06:38:08.500Z,13.50
2022-12-12T06:40:35.110Z,12.88
2022-12-12T06:43:01.607Z,13.00
2022-12-12T06:45:28.040Z,13.00
2022-12-12T06:47:54.635Z,13.73
2022-12-12T06:50:23.808Z,13.70
2022-12-12T06:52:50.628Z,14.15
2022-12-12T06:55:17.046Z,13.48
2022-12-12T06:57:43.491Z,12.60
2022-12-12T07:00:10.584Z,14.15
2022-12-12T07:02:37.059Z,13.80
2022-12-12T07:05:04.884Z,14.27
2022-12-12T07:07:32.501Z,14.18
2022-12-12T07:09:58.951Z,13.63
2022-12-12T07:12:25.433Z,15.07
2022-12-12T07:14:51.866Z,13.85
2022-12-12T07:17:18.356Z,14.60
2022-12-12T07:19:44.917Z,14.00
2022-12-12T07:22:11.363Z,13.80
2022-12-12T07:24:38.238Z,14.50
2022-12-12T07:27:06.199Z,13.63
2022-12-12T07:29:33.737Z,13.90
2022-12-12T07:32:00.190Z,12.63
2022-12-12T07:34:29.713Z,13.88
2022-12-12T07:37:02.303Z,13.40
2022-12-12T07:39:31.281Z,15.27
2022-12-12T07:41:57.702Z,15.80
2022-12-12T07:44:26.331Z,14.38
2022-12-12T07:46:55.477Z,15.38
2022-12-12T07:49:22.232Z,15.93
2022-12-12T07:51:49.351Z,14.75
2022-12-12T07:54:17.174Z,14.07
2022-12-12T07:56:43.645Z,14.30
2022-12-12T07:59:10.457Z,14.32
2022-12-12T08:01:37.143Z,14.75
2022-12-12T08:04:04.704Z,15.65
2022-12-12T08:06:31.192Z,17.05
2022-12-12T08:08:57.651Z,15.68
2022-12-12T08:11:25.484Z,16.60
2022-12-12T08:13:53.040Z,15.82
2022-12-12T08:16:26.177Z,15.25
2022-12-12T08:18:57.741Z,14.18
2022-12-12T08:21:26.596Z,13.77
2022-12-12T08:24:02.421Z,12.35
2022-12-12T08:26:30.449Z,12.95
2022-12-12T08:28:57.490Z,13.00
2022-12-12T08:31:24.842Z,12.73
2022-12-12T08:33:51.774Z,12.82
2022-12-12T08:36:22.171Z,14.40
2022-12-12T08:38:48.919Z,15.82
2022-12-12T08:41:15.881Z,14.50
2022-12-12T08:43:43.980Z,16.73
2022-12-12T08:46:17.141Z,14.77
2022-12-12T08:48:45.219Z,13.05
2022-12-12T08:51:12.667Z,14.68
2022-12-12T08:53:39.274Z,12.48
2022-12-12T08:56:06.356Z,11.57
2022-12-12T08:58:33.002Z,12.65
2022-12-12T09:00:59.536Z,11.75
2022-12-12T09:03:29.517Z,12.65
2022-12-12T09:05:56.809Z,9.43
2022-12-12T09:08:23.236Z,10.18
2022-12-12T09:10:50.586Z,9.50
2022-12-12T09:13:17.438Z,10.65
2022-12-12T09:15:43.824Z,10.75
2022-12-12T09:18:10.312Z,10.27
2022-12-12T09:20:36.756Z,9.48
2022-12-12T09:23:03.257Z,8.65
2022-12-12T09:25:30.004Z,9.52
2022-12-12T09:27:57.334Z,8.75
2022-12-12T09:30:24.157Z,8.27
2022-12-12T09:32:50.633Z,8.45
2022-12-12T09:35:17.204Z,8.60
2022-12-12T09:37:43.839Z,8.10
2022-12-12T09:40:18.129Z,9.00
2022-12-12T09:42:50.447Z,8.43
2022-12-12T09:45:19.528Z,8.60
2022-12-12T09:47:53.114Z,7.80
2022-12-12T09:50:37.066Z,7.85
2022-12-12T09:53:10.972Z,8.15
2022-12-12T09:55:58.289Z,7.55
2022-12-12T09:58:27.872Z,8.27
2022-12-12T10:01:22.600Z,8.50
2022-12-12T10:04:14.063Z,8.35
2022-12-12T10:07:19.045Z,8.82
2022-12-12T10:09:54.327Z,8.18
2022-12-12T10:12:22.220Z,9.05
2022-12-12T10:14:53.936Z,8.63
2022-12-12T10:17:29.297Z,8.25
2022-12-12T10:20:00.377Z,9.40
2022-12-12T10:22:38.142Z,9.38
2022-12-12T10:25:33.642Z,8.82
2022-12-12T10:28:10.798Z,9.82
2022-12-12T10:31:01.937Z,9.65
2022-12-12T10:34:01.706Z,9.40
2022-12-12T10:36:31.054Z,9.15
2022-12-12T10:39:09.875Z,8.68
2022-12-12T10:42:01.571Z,9.35
2022-12-12T10:44:58.310Z,10.23
2022-12-12T10:47:25.167Z,9.60
2022-12-12T10:49:58.544Z,9.55
2022-12-12T10:52:25.093Z,10.60
2022-12-12T10:55:00.395Z,10.20
2022-12-12T10:57:29.222Z,9.95
2022-12-12T10:59:58.313Z,9.93
2022-12-12T11:02:39.150Z,9.63
2022-12-12T11:05:18.523Z,10.18
2022-12-12T11:07:49.467Z,9.30
2022-12-12T11:10:35.177Z,9.60
2022-12-12T11:13:22.048Z,9.88
2022-12-12T11:15:57.572Z,9.70
2022-12-12T11:18:25.755Z,9.15
2022-12-12T11:21:02.087Z,9.27
2022-12-12T11:23:30.592Z,9.45
2022-12-12T11:26:11.127Z,9.85
2022-12-12T11:28:39.556Z,9.80
2022-12-12T11:31:10.677Z,9.65
2022-12-12T11:33:46.712Z,10.13
2022-12-12T11:36:16.633Z,9.65
2022-12-12T11:38:49.980Z,9.23
2022-12-12T11:41:16.955Z,10.23
2022-12-12T11:43:49.818Z,10.13
2022-12-12T11:46:23.705Z,10.13
2022-12-12T11:48:53.325Z,8.82
2022-12-12T11:51:34.269Z,8.95
2022-12-12T11:54:03.101Z,8.60
2022-12-12T11:59:11.436Z,9.30
2022-12-12T12:02:01.819Z,8.77
2022-12-12T12:04:52.642Z,9.60
2022-12-12T12:07:39.920Z,9.05
2022-12-12T12:10:24.235Z,8.07
2022-12-12T12:13:28.843Z,9.55
2022-12-12T12:16:36.763Z,8.88
2022-12-12T12:19:25.159Z,9.82
2022-12-12T12:21:59.468Z,9.27
2022-12-12T12:24:39.944Z,9.13
2022-12-12T12:27:37.886Z,8.43
2022-12-12T12:30:20.413Z,8.13
2022-12-12T12:33:18.534Z,8.60
2022-12-12T12:36:19.303Z,7.93
2022-12-12T12:38:48.158Z,9.55
2022-12-12T12:41:31.081Z,8.15
2022-12-12T12:44:11.195Z,8.88
2022-12-12T12:46:52.395Z,7.90
2022-12-12T12:49:31.186Z,8.80
2022-12-12T12:52:09.987Z,8.65
2022-12-12T12:54:39.990Z,8.48
2022-12-12T12:57:10.778Z,9.30
2022-12-12T12:59:42.401Z,8.98
2022-12-12T13:02:41.140Z,8.35
2022-12-12T13:05:21.530Z,8.48
2022-12-12T13:08:05.679Z,8.05
2022-12-12T13:10:33.572Z,7.72
2022-12-12T13:13:14.929Z,9.27
2022-12-12T13:15:53.644Z,8.85
2022-12-12T13:18:20.625Z,7.63
2022-12-12T13:20:59.235Z,7.70
2022-12-12T13:23:37.920Z,8.10
2022-12-12T13:26:27.654Z,8.70
2022-12-12T13:29:24.240Z,8.15
2022-12-12T13:32:25.556Z,8.02
2022-12-12T13:35:00.865Z,9.63
2022-12-12T13:40:06.602Z,8.35
2022-12-12T13:42:57.186Z,9.50
2022-12-12T13:45:38.002Z,7.65
2022-12-12T13:48:06.891Z,8.85
2022-12-12T13:53:05.832Z,9.90
2022-12-12T13:55:33.579Z,7.90
2022-12-12T13:58:02.064Z,9.07
2022-12-12T14:00:33.409Z,8.45
2022-12-12T14:03:12.517Z,9.25
2022-12-12T14:05:48.308Z,8.88
2022-12-12T14:08:15.318Z,9.65
2022-12-12T14:10:55.492Z,8.68
2022-12-12T14:13:22.033Z,9.60
2022-12-12T14:15:55.947Z,8.50
2022-12-12T14:18:44.358Z,8.75
2022-12-12T14:21:15.831Z,9.60
2022-12-12T14:23:45.451Z,9.27
2022-12-12T14:26:27.329Z,8.50
2022-12-12T14:32:07.503Z,7.93
2022-12-12T14:35:04.563Z,8.15
2022-12-12T14:37:54.880Z,8.65
2022-12-12T14:40:28.343Z,9.38
2022-12-12T14:43:21.232Z,9.80
2022-12-12T14:46:00.081Z,8.38
2022-12-12T14:48:32.353Z,8.32
2022-12-12T14:51:15.938Z,9.80
2022-12-12T14:53:49.024Z,4.25
2022-12-12T14:56:20.191Z,9.43
2022-12-12T14:58:55.764Z,9.55
2022-12-12T15:01:35.957Z,9.20
2022-12-12T15:04:05.803Z,10.27
2022-12-12T15:06:49.451Z,12.35
2022-12-12T15:09:24.668Z,26.77
2022-12-12T15:14:28.136Z,10.20
2022-12-12T15:17:00.729Z,10.13
2022-12-12T15:19:32.726Z,12.10
2022-12-12T15:21:59.919Z,10.88
2022-12-12T15:24:37.960Z,11.40
2022-12-12T15:27:05.894Z,9.98
2022-12-12T15:29:35.882Z,10.73
2022-12-12T15:32:06.870Z,9.13
2022-12-12T15:34:40.424Z,10.55
2022-12-12T15:37:33.940Z,10.52
2022-12-12T15:40:11.328Z,11.02
2022-12-12T15:42:42.945Z,10.38
2022-12-12T15:45:26.019Z,11.40
2022-12-12T15:47:54.588Z,13.07
2022-12-12T15:50:30.312Z,16.30
2022-12-12T15:53:16.206Z,12.25
2022-12-12T15:56:06.260Z,9.90
2022-12-12T15:58:45.168Z,9.73
2022-12-12T16:01:27.838Z,9.88
2022-12-12T16:03:57.380Z,9.25
2022-12-12T16:06:26.899Z,43.90
2022-12-12T16:09:07.437Z,25.42
2022-12-12T16:11:45.357Z,24.48
2022-12-12T16:14:39.747Z,15.30
2022-12-12T16:17:20.744Z,29.85
2022-12-12T16:19:54.204Z,15.50
2022-12-12T16:22:45.995Z,19.58
2022-12-12T16:25:18.779Z,19.58
2022-12-12T16:27:46.850Z,22.10
2022-12-12T16:30:15.274Z,17.33
2022-12-12T16:32:42.778Z,15.88
2022-12-12T16:35:15.446Z,10.95
2022-12-12T16:37:42.534Z,12.65
2022-12-12T16:40:14.310Z,15.40
2022-12-12T16:42:42.458Z,13.35
2022-12-12T16:45:11.504Z,12.98
2022-12-12T16:47:38.004Z,10.95
2022-12-12T16:50:05.455Z,12.02
2022-12-12T16:52:32.116Z,11.23
2022-12-12T16:54:58.841Z,12.05
2022-12-12T16:57:25.474Z,9.60
2022-12-12T16:59:51.939Z,9.10
2022-12-12T17:02:21.309Z,9.50
2022-12-12T17:04:49.553Z,9.63
2022-12-12T17:07:16.216Z,9.60
2022-12-12T17:09:43.283Z,10.43
2022-12-12T17:12:11.696Z,9.82
2022-12-12T17:14:38.784Z,11.13
2022-12-12T17:17:05.646Z,11.85
2022-12-12T17:19:32.905Z,11.82
2022-12-12T17:21:59.574Z,12.07
2022-12-12T17:24:26.279Z,12.75
2022-12-12T17:26:52.699Z,11.43
2022-12-12T17:29:19.214Z,11.32
2022-12-12T17:31:45.999Z,11.52
2022-12-12T17:34:12.512Z,10.27
2022-12-12T17:36:39.059Z,11.52
2022-12-12T17:39:05.647Z,11.23
2022-12-12T17:41:32.303Z,11.13
2022-12-12T17:43:58.821Z,11.38
2022-12-12T17:46:27.770Z,10.93
2022-12-12T17:51:24.205Z,10.88
2022-12-12T17:53:52.323Z,10.68
2022-12-12T17:56:22.686Z,12.23
2022-12-12T17:58:50.085Z,12.20
2022-12-12T18:01:20.810Z,11.75
2022-12-12T18:03:48.405Z,11.80
2022-12-12T18:06:19.787Z,12.20
2022-12-12T18:08:49.624Z,12.88
2022-12-12T18:11:19.287Z,15.05
2022-12-12T18:13:50.447Z,17.15
2022-12-12T18:16:18.064Z,14.05
2022-12-12T18:18:45.081Z,12.38
2022-12-12T18:21:23.548Z,11.93
2022-12-12T18:24:01.015Z,13.13
2022-12-12T18:26:27.845Z,13.70
2022-12-12T18:29:00.197Z,13.70
2022-12-12T18:31:27.960Z,13.95
2022-12-12T18:33:55.168Z,14.45
2022-12-12T18:36:24.082Z,14.48
2022-12-12T18:38:50.579Z,13.55
2022-12-12T18:41:17.489Z,13.90
2022-12-12T18:43:44.522Z,15.23
2022-12-12T18:46:16.426Z,12.60
2022-12-12T18:48:44.566Z,14.48
2022-12-12T18:51:14.014Z,13.07
2022-12-12T18:53:41.318Z,13.40
2022-12-12T18:56:10.285Z,12.32
2022-12-12T18:58:37.707Z,13.40
2022-12-12T19:01:12.921Z,12.63
2022-12-12T19:06:09.345Z,11.73
2022-12-12T19:08:36.038Z,11.70
2022-12-12T19:11:03.217Z,12.95
2022-12-12T19:13:30.851Z,12.35
2022-12-12T19:16:03.374Z,12.60
2022-12-12T19:18:30.333Z,12.27
2022-12-12T19:20:56.782Z,12.52
2022-12-12T19:23:23.314Z,12.98
2022-12-12T19:25:49.740Z,12.88
2022-12-12T19:28:16.172Z,13.32
2022-12-12T19:30:42.941Z,13.88
2022-12-12T19:33:09.753Z,11.77
2022-12-12T19:35:37.203Z,13.00
2022-12-12T19:38:03.957Z,12.27
2022-12-12T19:40:30.832Z,12.20
2022-12-12T19:42:57.360Z,12.40
2022-12-12T19:45:23.838Z,13.23
2022-12-12T19:47:50.434Z,13.07
2022-12-12T19:50:17.106Z,13.00
2022-12-12T19:52:45.919Z,12.73
2022-12-12T19:55:14.343Z,13.43
2022-12-12T19:57:41.013Z,12.50
2022-12-12T20:00:09.510Z,13.48
2022-12-12T20:02:37.046Z,13.80
2022-12-12T20:05:04.286Z,12.65
2022-12-12T20:07:30.799Z,11.57
2022-12-12T20:09:57.186Z,13.43
2022-12-12T20:12:23.807Z,14.38
2022-12-12T20:14:50.855Z,13.52
2022-12-12T20:17:18.254Z,12.77
2022-12-12T20:19:47.227Z,12.68
2022-12-12T20:22:13.675Z,13.73
2022-12-12T20:24:40.658Z,13.25
2022-12-12T20:27:08.776Z,14.15
2022-12-12T20:29:36.133Z,14.35
2022-12-12T20:32:03.156Z,14.50
2022-12-12T20:34:29.697Z,13.93
2022-12-12T20:36:56.916Z,15.07
2022-12-12T20:39:25.017Z,15.23
2022-12-12T20:41:53.524Z,14.95
2022-12-12T20:44:20.002Z,13.70
2022-12-12T20:46:47.418Z,13.70
2022-12-12T20:49:17.374Z,14.02
2022-12-12T20:51:55.414Z,14.70
2022-12-12T20:54:24.295Z,14.68
2022-12-12T20:56:51.941Z,13.85
2022-12-12T20:59:18.414Z,14.50
2022-12-12T21:01:46.819Z,13.95
2022-12-12T21:04:13.454Z,14.23
2022-12-12T21:06:43.122Z,14.55
2022-12-12T21:09:10.839Z,13.88
2022-12-12T21:11:38.594Z,14.40
2022-12-12T21:14:06.313Z,15.15
2022-12-12T21:16:35.854Z,14.73
2022-12-12T21:19:09.005Z,14.43
2022-12-12T21:21:35.873Z,14.45
2022-12-12T21:24:02.417Z,14.80
2022-12-12T21:26:31.467Z,14.23
2022-12-12T21:28:59.904Z,16.17
2022-12-12T21:31:29.475Z,15.82
2022-12-12T21:33:56.317Z,13.82
2022-12-12T21:36:24.255Z,14.18
2022-12-12T21:38:51.937Z,14.40
2022-12-12T21:41:20.603Z,13.82
2022-12-12T21:43:47.383Z,14.32
2022-12-12T21:46:16.693Z,14.35
2022-12-12T21:48:43.402Z,13.25
2022-12-12T21:51:14.056Z,12.68
2022-12-12T21:53:41.622Z,12.65
2022-12-12T21:56:17.297Z,13.18
2022-12-12T21:58:46.208Z,12.57
2022-12-12T22:01:20.792Z,13.48
2022-12-12T22:03:48.861Z,12.18
2022-12-12T22:06:18.391Z,13.45
2022-12-12T22:08:46.506Z,12.90
2022-12-12T22:11:15.291Z,13.88
2022-12-12T22:14:02.216Z,13.00
2022-12-12T22:16:33.317Z,12.82
2022-12-12T22:19:05.791Z,13.45
2022-12-12T22:21:34.647Z,12.20
2022-12-12T22:24:02.173Z,13.40
2022-12-12T22:26:38.070Z,12.52
2022-12-12T22:29:13.553Z,12.25
2022-12-12T22:31:41.548Z,11.65
2022-12-12T22:34:12.782Z,11.52
2022-12-12T22:36:40.039Z,11.57
2022-12-12T22:39:10.361Z,11.90
2022-12-12T22:41:36.824Z,11.10
2022-12-12T22:44:05.996Z,11.75
2022-12-12T22:46:35.162Z,12.02
2022-12-12T22:49:03.603Z,12.10
2022-12-12T22:51:33.005Z,11.82
2022-12-12T22:54:03.928Z,11.73
2022-12-12T22:56:32.402Z,11.25
2022-12-12T22:59:00.132Z,11.65
2022-12-12T23:01:27.734Z,11.35
2022-12-12T23:03:55.010Z,10.52
2022-12-12T23:06:30.724Z,11.55
2022-12-12T23:09:01.753Z,11.48
2022-12-12T23:11:30.357Z,11.57
2022-12-12T23:14:00.681Z,11.50
2022-12-12T23:16:27.598Z,10.93
2022-12-12T23:18:54.727Z,10.93
2022-12-12T23:21:22.797Z,11.10
2022-12-12T23:23:49.679Z,11.60
2022-12-12T23:26:19.507Z,10.88
2022-12-12T23:28:46.751Z,11.88
2022-12-12T23:31:20.508Z,11.15
2022-12-12T23:33:48.471Z,10.77
2022-12-12T23:36:15.566Z,10.40
2022-12-12T23:38:42.419Z,10.75
2022-12-12T23:41:11.716Z,10.63
2022-12-12T23:43:38.710Z,10.77
2022-12-12T23:46:08.119Z,11.07
2022-12-12T23:48:35.256Z,11.25
2022-12-12T23:51:01.738Z,10.65
2022-12-12T23:53:32.123Z,9.95
2022-12-12T23:56:04.252Z,11.10
2022-12-12T23:58:30.665Z,11.45
